EJA220 MYNN-KSRQ
Flight info
| Callsign | EJA220 |
|---|---|
| Flight time | 0h 57m |
| Altitude | 32000 |
| Route | DCT PEACH Y421 OCTAL DCT TUBBA DCT CURSD DCT |
| Aircraft | CL60/M-SBDE1E2E3FGHIJ1J4J5J7M3RWXYZ/LB1V1D1 |
Departure
| Time | 2026-05-07 21:45 |
|---|---|
| Airport | Lynden Pindling International Airport (MYNN) |
Arrival
| Time | 2026-05-07 22:43 |
|---|---|
| Airport | Sarasota Bradenton International Airport (KSRQ) |
| Time | Latitude | Longitude | Altitude | Speed | Heading |
|---|---|---|---|---|---|
| 2026-05-07 21:36 | 25.04374 | -77.46069 | 23 ft | 0 kts | 161° |
| 2026-05-07 21:42 | 25.04361 | -77.46093 | 23 ft | 12 kts | 284° |
| 2026-05-07 21:42 | 25.04422 | -77.46177 | 23 ft | 16 kts | 326° |
| 2026-05-07 21:42 | 25.04439 | -77.46295 | 23 ft | 19 kts | 266° |
| 2026-05-07 21:42 | 25.04458 | -77.46450 | 23 ft | 22 kts | 285° |
| 2026-05-07 21:43 | 25.04535 | -77.46584 | 23 ft | 23 kts | 314° |
| 2026-05-07 21:43 | 25.04653 | -77.46717 | 23 ft | 25 kts | 315° |
| 2026-05-07 21:43 | 25.04787 | -77.46865 | 23 ft | 27 kts | 315° |
| 2026-05-07 21:43 | 25.04918 | -77.47012 | 23 ft | 29 kts | 315° |
| 2026-05-07 21:44 | 25.05067 | -77.47177 | 23 ft | 28 kts | 314° |
| 2026-05-07 21:44 | 25.05181 | -77.47305 | 23 ft | 19 kts | 313° |
| 2026-05-07 21:44 | 25.05222 | -77.47416 | 23 ft | 17 kts | 259° |
| 2026-05-07 21:44 | 25.05179 | -77.47525 | 23 ft | 14 kts | 188° |
| 2026-05-07 21:45 | 25.05057 | -77.47426 | 23 ft | 53 kts | 135° |
| 2026-05-07 21:45 | 25.04531 | -77.46844 | 81 ft | 148 kts | 136° |
| 2026-05-07 21:45 | 25.03682 | -77.45994 | 720 ft | 181 kts | 139° |
| 2026-05-07 21:45 | 25.02484 | -77.45294 | 1551 ft | 217 kts | 172° |
| 2026-05-07 21:46 | 25.01029 | -77.45815 | 2610 ft | 242 kts | 229° |
| 2026-05-07 21:46 | 25.00732 | -77.47526 | 3810 ft | 251 kts | 295° |
| 2026-05-07 21:46 | 25.01949 | -77.48752 | 5475 ft | 243 kts | 327° |
| 2026-05-07 21:46 | 25.03412 | -77.49770 | 6520 ft | 264 kts | 327° |
| 2026-05-07 21:47 | 25.04965 | -77.50842 | 7745 ft | 273 kts | 328° |
| 2026-05-07 21:47 | 25.06589 | -77.51969 | 8904 ft | 281 kts | 328° |
| 2026-05-07 21:47 | 25.08231 | -77.53108 | 10024 ft | 288 kts | 329° |
| 2026-05-07 21:47 | 25.09933 | -77.54289 | 11135 ft | 294 kts | 329° |
| 2026-05-07 21:48 | 25.11665 | -77.55492 | 12304 ft | 297 kts | 329° |
| 2026-05-07 21:48 | 25.13341 | -77.56656 | 13401 ft | 300 kts | 328° |
| 2026-05-07 21:48 | 25.15122 | -77.57893 | 14504 ft | 303 kts | 328° |
| 2026-05-07 21:48 | 25.16890 | -77.59122 | 15587 ft | 306 kts | 328° |
| 2026-05-07 21:49 | 25.18679 | -77.60366 | 16616 ft | 308 kts | 328° |
| 2026-05-07 21:49 | 25.20503 | -77.61635 | 17629 ft | 311 kts | 328° |
| 2026-05-07 21:49 | 25.22319 | -77.62898 | 18555 ft | 315 kts | 328° |
| 2026-05-07 21:49 | 25.24178 | -77.64192 | 19421 ft | 319 kts | 327° |
| 2026-05-07 21:50 | 25.26075 | -77.65514 | 20268 ft | 324 kts | 327° |
| 2026-05-07 21:50 | 25.27969 | -77.66833 | 21095 ft | 328 kts | 327° |
| 2026-05-07 21:50 | 25.29904 | -77.68181 | 21888 ft | 332 kts | 326° |
| 2026-05-07 21:50 | 25.31868 | -77.69551 | 22665 ft | 336 kts | 326° |
| 2026-05-07 21:51 | 25.33859 | -77.70940 | 23467 ft | 339 kts | 326° |
| 2026-05-07 21:51 | 25.35838 | -77.72321 | 24257 ft | 342 kts | 326° |
| 2026-05-07 21:51 | 25.37866 | -77.73737 | 25020 ft | 345 kts | 326° |
| 2026-05-07 21:51 | 25.39926 | -77.75175 | 25771 ft | 348 kts | 326° |
| 2026-05-07 21:52 | 25.41968 | -77.76641 | 26496 ft | 350 kts | 322° |
| 2026-05-07 21:52 | 25.43653 | -77.78548 | 27202 ft | 351 kts | 305° |
| 2026-05-07 21:52 | 25.44968 | -77.80853 | 27794 ft | 357 kts | 302° |
| 2026-05-07 21:52 | 25.46194 | -77.83067 | 28367 ft | 360 kts | 302° |
| 2026-05-07 21:53 | 25.47515 | -77.85444 | 29008 ft | 363 kts | 302° |
| 2026-05-07 21:53 | 25.48831 | -77.87811 | 29607 ft | 366 kts | 302° |
| 2026-05-07 21:53 | 25.50179 | -77.90237 | 30187 ft | 369 kts | 302° |
| 2026-05-07 21:53 | 25.51528 | -77.92667 | 30714 ft | 373 kts | 302° |
| 2026-05-07 21:54 | 25.52845 | -77.95039 | 31194 ft | 376 kts | 302° |
| 2026-05-07 21:54 | 25.54218 | -77.97514 | 31690 ft | 379 kts | 302° |
| 2026-05-07 21:54 | 25.55626 | -78.00051 | 31985 ft | 387 kts | 302° |
| 2026-05-07 21:54 | 25.57060 | -78.02638 | 32019 ft | 401 kts | 302° |
| 2026-05-07 21:55 | 25.58532 | -78.05293 | 32009 ft | 414 kts | 302° |
| 2026-05-07 21:55 | 25.60062 | -78.08056 | 32003 ft | 426 kts | 302° |
| 2026-05-07 21:55 | 25.63081 | -78.13510 | 32006 ft | 441 kts | 302° |
| 2026-05-07 21:56 | 25.66301 | -78.19334 | 32006 ft | 446 kts | 302° |
| 2026-05-07 21:56 | 25.69451 | -78.25040 | 32002 ft | 445 kts | 302° |
| 2026-05-07 21:57 | 25.72679 | -78.30893 | 32006 ft | 445 kts | 302° |
| 2026-05-07 21:57 | 25.75913 | -78.36765 | 32003 ft | 444 kts | 301° |
| 2026-05-07 21:58 | 25.79111 | -78.42577 | 32001 ft | 444 kts | 301° |
| 2026-05-07 21:58 | 25.82345 | -78.48463 | 31999 ft | 443 kts | 301° |
| 2026-05-07 21:59 | 25.85537 | -78.54281 | 31999 ft | 443 kts | 301° |
| 2026-05-07 21:59 | 25.88670 | -78.59997 | 32000 ft | 443 kts | 301° |
| 2026-05-07 22:00 | 25.91484 | -78.66101 | 31997 ft | 443 kts | 291° |
| 2026-05-07 22:00 | 25.92889 | -78.72752 | 31994 ft | 446 kts | 277° |
| 2026-05-07 22:01 | 25.93019 | -78.79667 | 31991 ft | 447 kts | 271° |
| 2026-05-07 22:01 | 25.92989 | -78.86583 | 31993 ft | 447 kts | 271° |
| 2026-05-07 22:02 | 25.92957 | -78.93485 | 31990 ft | 447 kts | 271° |
| 2026-05-07 22:02 | 25.92924 | -78.99913 | 31989 ft | 447 kts | 271° |
| 2026-05-07 22:03 | 25.92886 | -79.06820 | 31989 ft | 447 kts | 271° |
| 2026-05-07 22:03 | 25.92844 | -79.13721 | 31989 ft | 447 kts | 271° |
| 2026-05-07 22:04 | 25.92800 | -79.20480 | 31989 ft | 446 kts | 271° |
| 2026-05-07 22:04 | 25.92752 | -79.27358 | 31989 ft | 446 kts | 271° |
| 2026-05-07 22:05 | 25.92702 | -79.34212 | 31989 ft | 446 kts | 271° |
| 2026-05-07 22:05 | 25.92647 | -79.41109 | 31989 ft | 446 kts | 271° |
| 2026-05-07 22:06 | 25.92590 | -79.47967 | 31989 ft | 446 kts | 271° |
| 2026-05-07 22:06 | 25.92529 | -79.54835 | 31989 ft | 446 kts | 271° |
| 2026-05-07 22:07 | 25.92467 | -79.61564 | 31990 ft | 446 kts | 271° |
| 2026-05-07 22:07 | 25.92400 | -79.68436 | 31988 ft | 446 kts | 271° |
| 2026-05-07 22:08 | 25.92559 | -79.75294 | 31991 ft | 443 kts | 278° |
| 2026-05-07 22:08 | 25.93991 | -79.81679 | 31990 ft | 441 kts | 291° |
| 2026-05-07 22:09 | 25.96830 | -79.87714 | 31988 ft | 441 kts | 301° |
| 2026-05-07 22:09 | 26.00084 | -79.93507 | 31992 ft | 441 kts | 301° |
| 2026-05-07 22:10 | 26.03317 | -79.99279 | 31997 ft | 441 kts | 301° |
| 2026-05-07 22:10 | 26.06507 | -80.04981 | 31996 ft | 440 kts | 301° |
| 2026-05-07 22:11 | 26.09743 | -80.10776 | 31995 ft | 441 kts | 301° |
| 2026-05-07 22:11 | 26.12948 | -80.16523 | 31993 ft | 441 kts | 301° |
| 2026-05-07 22:12 | 26.16341 | -80.22192 | 31993 ft | 441 kts | 307° |
| 2026-05-07 22:12 | 26.20179 | -80.27584 | 31992 ft | 441 kts | 307° |
| 2026-05-07 22:13 | 26.23976 | -80.32937 | 31993 ft | 441 kts | 307° |
| 2026-05-07 22:13 | 26.27804 | -80.38342 | 31993 ft | 441 kts | 307° |
| 2026-05-07 22:14 | 26.31606 | -80.43720 | 31989 ft | 441 kts | 307° |
| 2026-05-07 22:14 | 26.35324 | -80.48988 | 31978 ft | 440 kts | 307° |
| 2026-05-07 22:15 | 26.39115 | -80.54366 | 31977 ft | 440 kts | 307° |
| 2026-05-07 22:15 | 26.42894 | -80.59735 | 31974 ft | 440 kts | 307° |
| 2026-05-07 22:16 | 26.46673 | -80.65110 | 31969 ft | 439 kts | 306° |
| 2026-05-07 22:16 | 26.50452 | -80.70493 | 31965 ft | 439 kts | 306° |
| 2026-05-07 22:17 | 26.54207 | -80.75849 | 31955 ft | 439 kts | 306° |
| 2026-05-07 22:17 | 26.57988 | -80.81247 | 31952 ft | 439 kts | 306° |
| 2026-05-07 22:18 | 26.63603 | -80.89278 | 31817 ft | 434 kts | 306° |
| 2026-05-07 22:18 | 26.65445 | -80.91913 | 31340 ft | 424 kts | 306° |
| 2026-05-07 22:19 | 26.67235 | -80.94476 | 30825 ft | 415 kts | 306° |
| 2026-05-07 22:19 | 26.68952 | -80.96937 | 30315 ft | 407 kts | 306° |
| 2026-05-07 22:19 | 26.70656 | -80.99380 | 29811 ft | 400 kts | 306° |
| 2026-05-07 22:19 | 26.72372 | -81.01842 | 29256 ft | 394 kts | 306° |
| 2026-05-07 22:20 | 26.74053 | -81.04256 | 28747 ft | 388 kts | 305° |
| 2026-05-07 22:20 | 26.75691 | -81.06610 | 28234 ft | 383 kts | 305° |
| 2026-05-07 22:20 | 26.77315 | -81.08944 | 27730 ft | 377 kts | 305° |
| 2026-05-07 22:20 | 26.78919 | -81.11250 | 27230 ft | 372 kts | 305° |
| 2026-05-07 22:21 | 26.80494 | -81.13518 | 26738 ft | 367 kts | 305° |
| 2026-05-07 22:21 | 26.82043 | -81.15748 | 26259 ft | 362 kts | 305° |
| 2026-05-07 22:21 | 26.83590 | -81.17976 | 25781 ft | 357 kts | 305° |
| 2026-05-07 22:21 | 26.85099 | -81.20152 | 25326 ft | 352 kts | 305° |
| 2026-05-07 22:22 | 26.86592 | -81.22304 | 24862 ft | 348 kts | 305° |
| 2026-05-07 22:22 | 26.88063 | -81.24426 | 24416 ft | 343 kts | 306° |
| 2026-05-07 22:22 | 26.89509 | -81.26514 | 23959 ft | 339 kts | 305° |
| 2026-05-07 22:22 | 26.90963 | -81.28614 | 23508 ft | 335 kts | 305° |
| 2026-05-07 22:23 | 26.92365 | -81.30639 | 23074 ft | 331 kts | 305° |
| 2026-05-07 22:23 | 26.93783 | -81.32689 | 22631 ft | 326 kts | 305° |
| 2026-05-07 22:23 | 26.95156 | -81.34675 | 22210 ft | 321 kts | 305° |
| 2026-05-07 22:23 | 26.96523 | -81.36653 | 21776 ft | 317 kts | 305° |
| 2026-05-07 22:24 | 26.97861 | -81.38590 | 21365 ft | 316 kts | 306° |
| 2026-05-07 22:24 | 26.99204 | -81.40537 | 20949 ft | 317 kts | 306° |
| 2026-05-07 22:24 | 27.00559 | -81.42501 | 20526 ft | 317 kts | 306° |
| 2026-05-07 22:24 | 27.01907 | -81.44455 | 20103 ft | 315 kts | 306° |
| 2026-05-07 22:25 | 27.03234 | -81.46379 | 19688 ft | 313 kts | 306° |
| 2026-05-07 22:25 | 27.04573 | -81.48322 | 19271 ft | 312 kts | 306° |
| 2026-05-07 22:25 | 27.05888 | -81.50232 | 18863 ft | 310 kts | 306° |
| 2026-05-07 22:25 | 27.07210 | -81.52151 | 18451 ft | 309 kts | 306° |
| 2026-05-07 22:26 | 27.08517 | -81.54050 | 18040 ft | 308 kts | 306° |
| 2026-05-07 22:26 | 27.09830 | -81.55959 | 17633 ft | 306 kts | 306° |
| 2026-05-07 22:26 | 27.11137 | -81.57858 | 17222 ft | 305 kts | 306° |
| 2026-05-07 22:26 | 27.12437 | -81.59750 | 16808 ft | 304 kts | 306° |
| 2026-05-07 22:27 | 27.13720 | -81.61617 | 16372 ft | 302 kts | 306° |
| 2026-05-07 22:27 | 27.14949 | -81.63406 | 16002 ft | 301 kts | 306° |
| 2026-05-07 22:27 | 27.16222 | -81.65260 | 15600 ft | 301 kts | 305° |
| 2026-05-07 22:27 | 27.17525 | -81.67099 | 15203 ft | 300 kts | 309° |
| 2026-05-07 22:28 | 27.18965 | -81.68823 | 14805 ft | 300 kts | 311° |
| 2026-05-07 22:28 | 27.20396 | -81.70497 | 14418 ft | 299 kts | 311° |
| 2026-05-07 22:28 | 27.21841 | -81.72192 | 14017 ft | 298 kts | 311° |
| 2026-05-07 22:28 | 27.23267 | -81.73865 | 13625 ft | 298 kts | 311° |
| 2026-05-07 22:29 | 27.24711 | -81.75562 | 13222 ft | 298 kts | 311° |
| 2026-05-07 22:29 | 27.26138 | -81.77238 | 12830 ft | 297 kts | 311° |
| 2026-05-07 22:29 | 27.27563 | -81.78911 | 12435 ft | 297 kts | 311° |
| 2026-05-07 22:29 | 27.28991 | -81.80590 | 12042 ft | 295 kts | 311° |
| 2026-05-07 22:30 | 27.30411 | -81.82260 | 11650 ft | 294 kts | 311° |
| 2026-05-07 22:30 | 27.31811 | -81.83907 | 11261 ft | 292 kts | 311° |
| 2026-05-07 22:30 | 27.33214 | -81.85558 | 10873 ft | 290 kts | 311° |
| 2026-05-07 22:30 | 27.34626 | -81.87221 | 10484 ft | 288 kts | 311° |
| 2026-05-07 22:31 | 27.35996 | -81.88834 | 10104 ft | 286 kts | 311° |
| 2026-05-07 22:31 | 27.37380 | -81.90466 | 9723 ft | 284 kts | 311° |
| 2026-05-07 22:31 | 27.38730 | -81.92057 | 9349 ft | 283 kts | 311° |
| 2026-05-07 22:31 | 27.40103 | -81.93677 | 8970 ft | 282 kts | 311° |
| 2026-05-07 22:32 | 27.41446 | -81.95262 | 8596 ft | 281 kts | 312° |
| 2026-05-07 22:32 | 27.42791 | -81.96850 | 8220 ft | 279 kts | 312° |
| 2026-05-07 22:32 | 27.44140 | -81.98443 | 7851 ft | 277 kts | 312° |
| 2026-05-07 22:32 | 27.45470 | -82.00015 | 7488 ft | 276 kts | 313° |
| 2026-05-07 22:33 | 27.46785 | -82.01569 | 7121 ft | 274 kts | 313° |
| 2026-05-07 22:33 | 27.48075 | -82.03119 | 6810 ft | 273 kts | 313° |
| 2026-05-07 22:33 | 27.49384 | -82.04710 | 6393 ft | 274 kts | 313° |
| 2026-05-07 22:33 | 27.50672 | -82.06294 | 5989 ft | 272 kts | 313° |
| 2026-05-07 22:34 | 27.51938 | -82.07860 | 5594 ft | 269 kts | 313° |
| 2026-05-07 22:34 | 27.53191 | -82.09409 | 5198 ft | 267 kts | 313° |
| 2026-05-07 22:34 | 27.54444 | -82.10952 | 4794 ft | 265 kts | 313° |
| 2026-05-07 22:34 | 27.55679 | -82.12466 | 4396 ft | 263 kts | 313° |
| 2026-05-07 22:35 | 27.56925 | -82.13989 | 3992 ft | 262 kts | 313° |
| 2026-05-07 22:35 | 27.58156 | -82.15487 | 3578 ft | 261 kts | 313° |
| 2026-05-07 22:35 | 27.59405 | -82.17004 | 3154 ft | 259 kts | 313° |
| 2026-05-07 22:35 | 27.60480 | -82.18594 | 2964 ft | 256 kts | 294° |
| 2026-05-07 22:36 | 27.60837 | -82.20547 | 2942 ft | 258 kts | 275° |
| 2026-05-07 22:36 | 27.60944 | -82.22581 | 2948 ft | 259 kts | 274° |
| 2026-05-07 22:36 | 27.61035 | -82.24607 | 2952 ft | 259 kts | 274° |
| 2026-05-07 22:36 | 27.61123 | -82.26636 | 2952 ft | 259 kts | 274° |
| 2026-05-07 22:37 | 27.61205 | -82.28680 | 2952 ft | 259 kts | 271° |
| 2026-05-07 22:37 | 27.60842 | -82.30650 | 2959 ft | 262 kts | 246° |
| 2026-05-07 22:37 | 27.59927 | -82.32454 | 2949 ft | 263 kts | 241° |
| 2026-05-07 22:37 | 27.58998 | -82.34228 | 2949 ft | 262 kts | 241° |
| 2026-05-07 22:38 | 27.58070 | -82.36008 | 2951 ft | 263 kts | 241° |
| 2026-05-07 22:38 | 27.57139 | -82.37793 | 2955 ft | 263 kts | 242° |
| 2026-05-07 22:38 | 27.56206 | -82.39583 | 2850 ft | 262 kts | 241° |
| 2026-05-07 22:38 | 27.55255 | -82.41301 | 2619 ft | 253 kts | 233° |
| 2026-05-07 22:39 | 27.53984 | -82.42619 | 2385 ft | 246 kts | 219° |
| 2026-05-07 22:39 | 27.52644 | -82.43765 | 2145 ft | 238 kts | 220° |
| 2026-05-07 22:39 | 27.51376 | -82.44871 | 1962 ft | 218 kts | 220° |
| 2026-05-07 22:39 | 27.50246 | -82.45863 | 1976 ft | 192 kts | 220° |
| 2026-05-07 22:40 | 27.49203 | -82.46783 | 1978 ft | 188 kts | 220° |
| 2026-05-07 22:40 | 27.48176 | -82.47688 | 1967 ft | 185 kts | 220° |
| 2026-05-07 22:40 | 27.47151 | -82.48592 | 1726 ft | 186 kts | 220° |
| 2026-05-07 22:40 | 27.46175 | -82.49449 | 1531 ft | 170 kts | 220° |
| 2026-05-07 22:41 | 27.45261 | -82.50254 | 1297 ft | 160 kts | 220° |
| 2026-05-07 22:41 | 27.44425 | -82.50988 | 1076 ft | 142 kts | 220° |
| 2026-05-07 22:41 | 27.43702 | -82.51623 | 929 ft | 123 kts | 220° |
| 2026-05-07 22:41 | 27.43061 | -82.52190 | 760 ft | 122 kts | 220° |
| 2026-05-07 22:42 | 27.42399 | -82.52773 | 602 ft | 119 kts | 220° |
| 2026-05-07 22:42 | 27.41736 | -82.53358 | 432 ft | 119 kts | 220° |
| 2026-05-07 22:42 | 27.41086 | -82.53934 | 272 ft | 118 kts | 219° |
| 2026-05-07 22:42 | 27.40445 | -82.54497 | 142 ft | 117 kts | 219° |
| 2026-05-07 22:43 | 27.39807 | -82.55055 | 26 ft | 109 kts | 218° |
| 2026-05-07 22:43 | 27.39438 | -82.55381 | 25 ft | 20 kts | 219° |
| 2026-05-07 22:43 | 27.39357 | -82.55467 | 25 ft | 13 kts | 276° |
| 2026-05-07 22:43 | 27.39427 | -82.55553 | 25 ft | 17 kts | 313° |
| 2026-05-07 22:44 | 27.39512 | -82.55655 | 25 ft | 14 kts | 314° |
| 2026-05-07 22:44 | 27.39498 | -82.55726 | 25 ft | 14 kts | 226° |
| 2026-05-07 22:44 | 27.39466 | -82.55795 | 24 ft | 5 kts | 347° |
| 2026-05-07 22:44 | 27.39468 | -82.55795 | 24 ft | 0 kts | 2° |